CA-0035 weather

CLOSED Batnuni Airport
British Columbia, Canada

Public forecast

Using degrees Celsius for public forecast. Weather courtesy of forecast.io.

METAR (pilot weather report)

Closest report is Prince George Airport, 60.0 nm (111.2 km) ENE. Retrieved 2019/08/24 07:00 UTC (54 minutes ago):

CYXS 240700Z AUTO 19005KT 9SM FEW070 BKN110 OVC130 12/11 A2976 RMK SLP088 DENSITY ALT 2600FT

TAF (pilot weather forecast)

Closest forecast is Prince George Airport, 60.0 nm (111.2 km) ENE. Retrieved 2019/08/24 07:45 UTC (9 minutes ago):

TAF CYXS 240643Z 2407/2419 18006KT P6SM FEW080 BKN120 TEMPO 2410/2414 5SM -RA BR SCT005 BKN020 BKN030 PROB30 2410/2414 1SM BR FM241400 18006KT P6SM FEW005 BKN030 TEMPO 2414/2419 3SM -RA BR SCT005 OVC020 RMK FCST BASED ON AUTO OBS. NXT FCST BY 241300Z